Albrightsville, Pennsylvania
Current Conditions -  °F | °C
As of 5:07 AM on Tuesday 27 Jan 2015 (Local Time) from KMPO Reporting Station
Light Snow Light Snow  
Wind Chill:   Ceiling: 5000
Heat Index: 17°   Visibility: 3mi
Dew Point: 12°   Wind: 15mph
Humidity: 81%   Direction: 330°NNW
Pressure: 29.61"   Gusts: NA
Location:  41°N, 75.53°W
Report Text: KMPO 271007Z AUTO 33013KT 3SM -SN OVC050 M08/M11 A2961 RMK AO2 P0000 T10831111
Loading
Personal Weather Stations






























Interactive Weather Map New forecast layout! Learn more

10-Day Weather Forecast

Advertisements
Track Severe Weather on mobile